sensor_id;sensor_type;location;lat;lon;timestamp;temperature;humidity
44843;DHT22;31884;52.538;13.820;2023-07-24T00:00:39;16.90;99.90
44843;DHT22;31884;52.538;13.820;2023-07-24T00:03:06;16.90;99.90
44843;DHT22;31884;52.538;13.820;2023-07-24T00:05:31;16.90;99.90
44843;DHT22;31884;52.538;13.820;2023-07-24T00:07:57;16.90;99.90
44843;DHT22;31884;52.538;13.820;2023-07-24T00:10:22;16.90;99.90
44843;DHT22;31884;52.538;13.820;2023-07-24T00:12:48;16.90;99.90
44843;DHT22;31884;52.538;13.820;2023-07-24T00:15:13;17.00;99.90
44843;DHT22;31884;52.538;13.820;2023-07-24T00:17:39;17.00;99.90
44843;DHT22;31884;52.538;13.820;2023-07-24T00:20:05;17.10;99.90
44843;DHT22;31884;52.538;13.820;2023-07-24T00:22:31;17.10;99.90
44843;DHT22;31884;52.538;13.820;2023-07-24T00:24:57;17.20;99.90
44843;DHT22;31884;52.538;13.820;2023-07-24T00:27:22;17.20;99.90
44843;DHT22;31884;52.538;13.820;2023-07-24T00:29:48;17.30;99.90
44843;DHT22;31884;52.538;13.820;2023-07-24T00:32:13;17.40;99.90
44843;DHT22;31884;52.538;13.820;2023-07-24T00:34:39;17.50;99.90
44843;DHT22;31884;52.538;13.820;2023-07-24T00:37:04;17.50;99.00
44843;DHT22;31884;52.538;13.820;2023-07-24T00:39:30;17.70;97.90
44843;DHT22;31884;52.538;13.820;2023-07-24T00:41:55;17.70;97.10
44843;DHT22;31884;52.538;13.820;2023-07-24T00:44:21;17.80;96.90
44843;DHT22;31884;52.538;13.820;2023-07-24T00:46:46;17.80;96.30
44843;DHT22;31884;52.538;13.820;2023-07-24T00:49:13;17.90;96.40
44843;DHT22;31884;52.538;13.820;2023-07-24T00:51:39;17.90;95.90
44843;DHT22;31884;52.538;13.820;2023-07-24T00:54:06;17.90;96.20
44843;DHT22;31884;52.538;13.820;2023-07-24T00:56:32;17.90;96.20
44843;DHT22;31884;52.538;13.820;2023-07-24T00:58:58;18.00;95.90
44843;DHT22;31884;52.538;13.820;2023-07-24T01:01:25;18.00;96.40
44843;DHT22;31884;52.538;13.820;2023-07-24T01:03:51;17.90;96.80
44843;DHT22;31884;52.538;13.820;2023-07-24T01:06:17;17.90;96.90
44843;DHT22;31884;52.538;13.820;2023-07-24T01:08:42;17.90;97.20
44843;DHT22;31884;52.538;13.820;2023-07-24T01:11:24;17.90;97.70
44843;DHT22;31884;52.538;13.820;2023-07-24T01:14:04;17.80;97.80
44843;DHT22;31884;52.538;13.820;2023-07-24T01:16:41;17.80;97.50
44843;DHT22;31884;52.538;13.820;2023-07-24T01:19:20;17.80;97.60
44843;DHT22;31884;52.538;13.820;2023-07-24T01:22:01;17.80;97.80
44843;DHT22;31884;52.538;13.820;2023-07-24T01:24:39;17.80;97.40
44843;DHT22;31884;52.538;13.820;2023-07-24T01:27:07;17.70;97.70
44843;DHT22;31884;52.538;13.820;2023-07-24T01:29:33;17.70;97.00
44843;DHT22;31884;52.538;13.820;2023-07-24T01:31:58;17.70;96.80
44843;DHT22;31884;52.538;13.820;2023-07-24T01:34:24;17.70;96.70
44843;DHT22;31884;52.538;13.820;2023-07-24T01:36:50;17.70;97.00
44843;DHT22;31884;52.538;13.820;2023-07-24T01:39:16;17.70;96.70
44843;DHT22;31884;52.538;13.820;2023-07-24T01:41:42;17.70;96.70
44843;DHT22;31884;52.538;13.820;2023-07-24T01:44:08;17.60;96.80
44843;DHT22;31884;52.538;13.820;2023-07-24T01:46:33;17.60;97.10
44843;DHT22;31884;52.538;13.820;2023-07-24T01:48:59;17.60;97.40
44843;DHT22;31884;52.538;13.820;2023-07-24T01:51:24;17.60;97.10
44843;DHT22;31884;52.538;13.820;2023-07-24T01:53:50;17.60;97.10
44843;DHT22;31884;52.538;13.820;2023-07-24T01:56:15;17.60;97.20
44843;DHT22;31884;52.538;13.820;2023-07-24T01:58:41;17.60;96.70
44843;DHT22;31884;52.538;13.820;2023-07-24T02:01:06;17.60;96.30
44843;DHT22;31884;52.538;13.820;2023-07-24T02:03:32;17.60;95.80
44843;DHT22;31884;52.538;13.820;2023-07-24T02:05:57;17.60;95.70
44843;DHT22;31884;52.538;13.820;2023-07-24T02:08:23;17.60;95.20
44843;DHT22;31884;52.538;13.820;2023-07-24T02:10:49;17.70;94.80
44843;DHT22;31884;52.538;13.820;2023-07-24T02:13:15;17.70;94.50
44843;DHT22;31884;52.538;13.820;2023-07-24T02:15:41;17.70;94.30
44843;DHT22;31884;52.538;13.820;2023-07-24T02:18:06;17.70;94.10
44843;DHT22;31884;52.538;13.820;2023-07-24T02:20:32;17.80;93.90
44843;DHT22;31884;52.538;13.820;2023-07-24T02:22:57;17.80;93.80
44843;DHT22;31884;52.538;13.820;2023-07-24T02:25:23;17.80;93.70
44843;DHT22;31884;52.538;13.820;2023-07-24T02:27:48;17.80;93.50
44843;DHT22;31884;52.538;13.820;2023-07-24T02:30:14;17.80;93.40
44843;DHT22;31884;52.538;13.820;2023-07-24T02:32:39;17.80;93.50
44843;DHT22;31884;52.538;13.820;2023-07-24T02:35:05;17.80;93.20
44843;DHT22;31884;52.538;13.820;2023-07-24T02:37:31;17.80;93.20
44843;DHT22;31884;52.538;13.820;2023-07-24T02:39:56;17.80;93.20
44843;DHT22;31884;52.538;13.820;2023-07-24T02:42:22;17.80;93.10
44843;DHT22;31884;52.538;13.820;2023-07-24T02:44:47;17.90;93.00
44843;DHT22;31884;52.538;13.820;2023-07-24T02:47:13;17.90;93.20
44843;DHT22;31884;52.538;13.820;2023-07-24T02:49:38;17.90;93.10
44843;DHT22;31884;52.538;13.820;2023-07-24T02:52:04;17.90;93.20
44843;DHT22;31884;52.538;13.820;2023-07-24T02:54:30;17.90;93.10
44843;DHT22;31884;52.538;13.820;2023-07-24T02:56:55;17.90;93.20
44843;DHT22;31884;52.538;13.820;2023-07-24T02:59:21;17.90;93.30
44843;DHT22;31884;52.538;13.820;2023-07-24T03:01:46;17.90;93.50
44843;DHT22;31884;52.538;13.820;2023-07-24T03:04:12;17.90;93.40
44843;DHT22;31884;52.538;13.820;2023-07-24T03:06:39;17.90;93.40
44843;DHT22;31884;52.538;13.820;2023-07-24T03:09:05;18.00;93.50
44843;DHT22;31884;52.538;13.820;2023-07-24T03:11:31;18.00;93.50
44843;DHT22;31884;52.538;13.820;2023-07-24T03:13:56;18.00;93.80
44843;DHT22;31884;52.538;13.820;2023-07-24T03:16:22;18.00;93.70
44843;DHT22;31884;52.538;13.820;2023-07-24T03:18:47;18.10;93.80
44843;DHT22;31884;52.538;13.820;2023-07-24T03:21:12;18.10;93.60
44843;DHT22;31884;52.538;13.820;2023-07-24T03:23:38;18.20;93.80
44843;DHT22;31884;52.538;13.820;2023-07-24T03:26:03;18.20;93.80
44843;DHT22;31884;52.538;13.820;2023-07-24T03:28:29;18.20;93.80
44843;DHT22;31884;52.538;13.820;2023-07-24T03:30:55;18.30;93.80
44843;DHT22;31884;52.538;13.820;2023-07-24T03:33:20;18.30;93.90
44843;DHT22;31884;52.538;13.820;2023-07-24T03:35:46;18.40;93.90
44843;DHT22;31884;52.538;13.820;2023-07-24T03:38:11;18.40;93.90
44843;DHT22;31884;52.538;13.820;2023-07-24T03:40:37;18.40;93.80
44843;DHT22;31884;52.538;13.820;2023-07-24T03:43:02;18.50;94.10
44843;DHT22;31884;52.538;13.820;2023-07-24T03:45:28;18.50;94.00
44843;DHT22;31884;52.538;13.820;2023-07-24T03:47:53;18.50;93.90
44843;DHT22;31884;52.538;13.820;2023-07-24T03:50:19;18.60;93.90
44843;DHT22;31884;52.538;13.820;2023-07-24T03:52:44;18.60;94.00
44843;DHT22;31884;52.538;13.820;2023-07-24T03:55:10;18.60;94.20
44843;DHT22;31884;52.538;13.820;2023-07-24T03:57:36;18.70;94.30
44843;DHT22;31884;52.538;13.820;2023-07-24T04:00:02;18.70;94.60
44843;DHT22;31884;52.538;13.820;2023-07-24T04:02:28;18.80;94.70
44843;DHT22;31884;52.538;13.820;2023-07-24T04:04:53;18.80;94.60
44843;DHT22;31884;52.538;13.820;2023-07-24T04:07:19;18.80;94.80
44843;DHT22;31884;52.538;13.820;2023-07-24T04:09:45;18.90;94.90
44843;DHT22;31884;52.538;13.820;2023-07-24T04:12:10;18.90;95.10
44843;DHT22;31884;52.538;13.820;2023-07-24T04:14:36;19.00;95.30
44843;DHT22;31884;52.538;13.820;2023-07-24T04:17:01;19.00;95.50
44843;DHT22;31884;52.538;13.820;2023-07-24T04:19:27;19.10;95.90
44843;DHT22;31884;52.538;13.820;2023-07-24T04:21:52;19.10;95.60
44843;DHT22;31884;52.538;13.820;2023-07-24T04:24:18;19.20;95.50
44843;DHT22;31884;52.538;13.820;2023-07-24T04:26:43;19.20;95.60
44843;DHT22;31884;52.538;13.820;2023-07-24T04:29:09;19.30;95.50
44843;DHT22;31884;52.538;13.820;2023-07-24T04:31:34;19.30;95.70
44843;DHT22;31884;52.538;13.820;2023-07-24T04:34:00;19.30;96.00
44843;DHT22;31884;52.538;13.820;2023-07-24T04:36:25;19.30;96.70
44843;DHT22;31884;52.538;13.820;2023-07-24T04:38:51;19.40;96.90
44843;DHT22;31884;52.538;13.820;2023-07-24T04:41:16;19.50;96.70
44843;DHT22;31884;52.538;13.820;2023-07-24T04:43:42;19.50;97.10
44843;DHT22;31884;52.538;13.820;2023-07-24T04:46:07;19.50;96.80
44843;DHT22;31884;52.538;13.820;2023-07-24T04:48:33;19.50;97.00
44843;DHT22;31884;52.538;13.820;2023-07-24T04:50:58;19.50;96.60
44843;DHT22;31884;52.538;13.820;2023-07-24T04:53:24;19.60;96.40
44843;DHT22;31884;52.538;13.820;2023-07-24T04:55:49;19.60;96.40
44843;DHT22;31884;52.538;13.820;2023-07-24T04:58:15;19.70;96.20
44843;DHT22;31884;52.538;13.820;2023-07-24T05:00:40;19.80;96.10
44843;DHT22;31884;52.538;13.820;2023-07-24T05:03:06;19.80;95.90
44843;DHT22;31884;52.538;13.820;2023-07-24T05:05:37;19.90;95.70
44843;DHT22;31884;52.538;13.820;2023-07-24T05:08:02;20.00;95.20
44843;DHT22;31884;52.538;13.820;2023-07-24T05:10:28;20.30;95.00
44843;DHT22;31884;52.538;13.820;2023-07-24T05:12:53;20.40;94.40
44843;DHT22;31884;52.538;13.820;2023-07-24T05:15:22;20.40;94.10
44843;DHT22;31884;52.538;13.820;2023-07-24T05:17:47;20.40;93.90
44843;DHT22;31884;52.538;13.820;2023-07-24T05:20:13;20.60;93.70
44843;DHT22;31884;52.538;13.820;2023-07-24T05:22:38;20.70;93.40
44843;DHT22;31884;52.538;13.820;2023-07-24T05:25:04;20.90;92.90
44843;DHT22;31884;52.538;13.820;2023-07-24T05:27:29;21.50;92.20
44843;DHT22;31884;52.538;13.820;2023-07-24T05:29:55;22.30;90.60
44843;DHT22;31884;52.538;13.820;2023-07-24T05:32:20;22.50;87.50
44843;DHT22;31884;52.538;13.820;2023-07-24T05:34:46;22.70;87.20
44843;DHT22;31884;52.538;13.820;2023-07-24T05:37:11;22.80;86.20
44843;DHT22;31884;52.538;13.820;2023-07-24T05:39:37;23.00;84.70
44843;DHT22;31884;52.538;13.820;2023-07-24T05:42:03;23.10;84.20
44843;DHT22;31884;52.538;13.820;2023-07-24T05:44:28;23.10;83.10
44843;DHT22;31884;52.538;13.820;2023-07-24T05:46:54;23.10;83.10
44843;DHT22;31884;52.538;13.820;2023-07-24T05:49:19;23.30;81.80
44843;DHT22;31884;52.538;13.820;2023-07-24T05:51:45;25.10;76.40
44843;DHT22;31884;52.538;13.820;2023-07-24T05:54:10;26.80;71.90
44843;DHT22;31884;52.538;13.820;2023-07-24T05:56:36;27.90;68.50
44843;DHT22;31884;52.538;13.820;2023-07-24T05:59:01;28.10;66.30
44843;DHT22;31884;52.538;13.820;2023-07-24T06:01:27;28.10;63.70
44843;DHT22;31884;52.538;13.820;2023-07-24T06:03:52;28.40;61.30
44843;DHT22;31884;52.538;13.820;2023-07-24T06:06:18;29.10;59.50
44843;DHT22;31884;52.538;13.820;2023-07-24T06:08:44;30.50;56.00
44843;DHT22;31884;52.538;13.820;2023-07-24T06:11:10;31.90;51.60
44843;DHT22;31884;52.538;13.820;2023-07-24T06:13:35;33.00;46.30
44843;DHT22;31884;52.538;13.820;2023-07-24T06:16:01;33.40;42.50
44843;DHT22;31884;52.538;13.820;2023-07-24T06:18:26;34.20;38.00
44843;DHT22;31884;52.538;13.820;2023-07-24T06:20:53;35.10;35.10
44843;DHT22;31884;52.538;13.820;2023-07-24T06:23:19;35.80;31.20
44843;DHT22;31884;52.538;13.820;2023-07-24T06:25:44;36.50;28.50
44843;DHT22;31884;52.538;13.820;2023-07-24T06:28:09;37.20;26.20
44843;DHT22;31884;52.538;13.820;2023-07-24T06:30:35;37.80;24.10
44843;DHT22;31884;52.538;13.820;2023-07-24T06:33:00;38.50;22.30
44843;DHT22;31884;52.538;13.820;2023-07-24T06:35:26;39.00;20.40
44843;DHT22;31884;52.538;13.820;2023-07-24T06:37:51;39.40;18.00
44843;DHT22;31884;52.538;13.820;2023-07-24T06:40:17;39.80;16.80
44843;DHT22;31884;52.538;13.820;2023-07-24T06:42:42;40.10;15.50
44843;DHT22;31884;52.538;13.820;2023-07-24T06:45:08;40.20;14.10
44843;DHT22;31884;52.538;13.820;2023-07-24T06:47:33;40.50;13.70
44843;DHT22;31884;52.538;13.820;2023-07-24T06:49:59;40.80;11.80
44843;DHT22;31884;52.538;13.820;2023-07-24T06:52:24;41.00;10.50
44843;DHT22;31884;52.538;13.820;2023-07-24T06:54:50;41.30;10.10
44843;DHT22;31884;52.538;13.820;2023-07-24T06:57:15;41.40;8.80
44843;DHT22;31884;52.538;13.820;2023-07-24T06:59:41;41.70;8.00
44843;DHT22;31884;52.538;13.820;2023-07-24T07:02:06;42.10;7.60
44843;DHT22;31884;52.538;13.820;2023-07-24T07:04:32;42.60;7.00
44843;DHT22;31884;52.538;13.820;2023-07-24T07:06:57;43.20;6.40
44843;DHT22;31884;52.538;13.820;2023-07-24T07:09:23;43.60;5.70
44843;DHT22;31884;52.538;13.820;2023-07-24T07:11:48;43.80;5.00
44843;DHT22;31884;52.538;13.820;2023-07-24T07:14:13;43.70;4.30
44843;DHT22;31884;52.538;13.820;2023-07-24T07:16:39;43.70;3.90
44843;DHT22;31884;52.538;13.820;2023-07-24T07:19:06;43.90;3.50
44843;DHT22;31884;52.538;13.820;2023-07-24T07:21:31;44.00;3.20
44843;DHT22;31884;52.538;13.820;2023-07-24T07:23:57;43.80;2.70
44843;DHT22;31884;52.538;13.820;2023-07-24T07:26:22;43.70;2.20
44843;DHT22;31884;52.538;13.820;2023-07-24T07:28:48;43.70;2.50
44843;DHT22;31884;52.538;13.820;2023-07-24T07:31:14;43.60;2.30
44843;DHT22;31884;52.538;13.820;2023-07-24T07:33:39;43.30;2.00
44843;DHT22;31884;52.538;13.820;2023-07-24T07:36:05;43.40;1.50
44843;DHT22;31884;52.538;13.820;2023-07-24T07:38:31;43.70;1.70
44843;DHT22;31884;52.538;13.820;2023-07-24T07:40:57;43.90;1.30
44843;DHT22;31884;52.538;13.820;2023-07-24T07:43:22;43.40;1.10
44843;DHT22;31884;52.538;13.820;2023-07-24T07:45:48;43.30;1.00
44843;DHT22;31884;52.538;13.820;2023-07-24T07:48:13;43.10;1.00
44843;DHT22;31884;52.538;13.820;2023-07-24T07:50:39;42.50;1.10
44843;DHT22;31884;52.538;13.820;2023-07-24T07:53:04;42.10;1.30
44843;DHT22;31884;52.538;13.820;2023-07-24T07:55:30;42.10;1.40
44843;DHT22;31884;52.538;13.820;2023-07-24T07:57:56;42.20;1.10
44843;DHT22;31884;52.538;13.820;2023-07-24T08:00:21;42.00;1.10
44843;DHT22;31884;52.538;13.820;2023-07-24T08:02:47;41.60;1.10
44843;DHT22;31884;52.538;13.820;2023-07-24T08:05:12;40.70;1.30
44843;DHT22;31884;52.538;13.820;2023-07-24T08:07:38;40.30;1.50
44843;DHT22;31884;52.538;13.820;2023-07-24T08:10:04;40.10;1.60
44843;DHT22;31884;52.538;13.820;2023-07-24T08:12:29;39.50;1.40
44843;DHT22;31884;52.538;13.820;2023-07-24T08:14:58;39.70;2.00
44843;DHT22;31884;52.538;13.820;2023-07-24T08:17:23;39.80;1.90
44843;DHT22;31884;52.538;13.820;2023-07-24T08:19:49;39.50;2.00
44843;DHT22;31884;52.538;13.820;2023-07-24T08:22:14;39.20;2.20
44843;DHT22;31884;52.538;13.820;2023-07-24T08:24:40;38.60;2.50
44843;DHT22;31884;52.538;13.820;2023-07-24T08:27:06;38.20;2.90
44843;DHT22;31884;52.538;13.820;2023-07-24T08:29:31;37.90;3.10
44843;DHT22;31884;52.538;13.820;2023-07-24T08:31:57;38.00;3.20
44843;DHT22;31884;52.538;13.820;2023-07-24T08:34:22;38.00;3.30
44843;DHT22;31884;52.538;13.820;2023-07-24T08:36:48;37.10;3.60
44843;DHT22;31884;52.538;13.820;2023-07-24T08:39:13;36.60;4.20
44843;DHT22;31884;52.538;13.820;2023-07-24T08:41:39;36.50;4.30
44843;DHT22;31884;52.538;13.820;2023-07-24T08:44:08;36.50;4.60
44843;DHT22;31884;52.538;13.820;2023-07-24T08:46:37;36.70;5.20
44843;DHT22;31884;52.538;13.820;2023-07-24T08:49:04;36.80;4.80
44843;DHT22;31884;52.538;13.820;2023-07-24T08:51:30;37.00;4.90
44843;DHT22;31884;52.538;13.820;2023-07-24T08:53:56;37.20;4.80
44843;DHT22;31884;52.538;13.820;2023-07-24T08:56:22;36.70;5.00
44843;DHT22;31884;52.538;13.820;2023-07-24T08:58:48;36.40;5.00
44843;DHT22;31884;52.538;13.820;2023-07-24T09:01:14;36.00;5.00
44843;DHT22;31884;52.538;13.820;2023-07-24T09:03:40;35.40;5.40
44843;DHT22;31884;52.538;13.820;2023-07-24T09:06:06;34.50;6.00
44843;DHT22;31884;52.538;13.820;2023-07-24T09:08:42;33.70;6.70
44843;DHT22;31884;52.538;13.820;2023-07-24T09:11:09;33.00;7.20
44843;DHT22;31884;52.538;13.820;2023-07-24T09:13:37;32.80;7.60
44843;DHT22;31884;52.538;13.820;2023-07-24T09:16:02;32.70;8.30
44843;DHT22;31884;52.538;13.820;2023-07-24T09:18:41;32.70;8.20
44843;DHT22;31884;52.538;13.820;2023-07-24T09:21:07;32.60;9.60
44843;DHT22;31884;52.538;13.820;2023-07-24T09:23:32;32.20;9.30
44843;DHT22;31884;52.538;13.820;2023-07-24T09:25:58;32.20;9.60
44843;DHT22;31884;52.538;13.820;2023-07-24T09:28:24;32.40;9.80
44843;DHT22;31884;52.538;13.820;2023-07-24T09:30:54;32.30;10.50
44843;DHT22;31884;52.538;13.820;2023-07-24T09:33:20;32.20;10.60
44843;DHT22;31884;52.538;13.820;2023-07-24T09:35:57;31.90;10.60
44843;DHT22;31884;52.538;13.820;2023-07-24T09:38:23;31.70;11.40
44843;DHT22;31884;52.538;13.820;2023-07-24T09:40:48;31.40;11.20
44843;DHT22;31884;52.538;13.820;2023-07-24T09:43:23;31.00;11.50
44843;DHT22;31884;52.538;13.820;2023-07-24T09:45:50;30.80;12.60
44843;DHT22;31884;52.538;13.820;2023-07-24T09:48:18;30.70;12.20
44843;DHT22;31884;52.538;13.820;2023-07-24T09:50:49;30.50;12.50
44843;DHT22;31884;52.538;13.820;2023-07-24T09:55:59;30.60;13.20
44843;DHT22;31884;52.538;13.820;2023-07-24T09:58:25;30.50;13.30
44843;DHT22;31884;52.538;13.820;2023-07-24T10:00:52;30.50;12.90
44843;DHT22;31884;52.538;13.820;2023-07-24T10:03:17;30.60;13.10
44843;DHT22;31884;52.538;13.820;2023-07-24T10:05:44;30.40;13.10
44843;DHT22;31884;52.538;13.820;2023-07-24T10:08:17;30.40;13.30
44843;DHT22;31884;52.538;13.820;2023-07-24T10:10:43;30.30;13.50
44843;DHT22;31884;52.538;13.820;2023-07-24T10:13:09;30.40;13.10
44843;DHT22;31884;52.538;13.820;2023-07-24T10:15:37;30.40;13.20
44843;DHT22;31884;52.538;13.820;2023-07-24T10:18:07;30.20;13.50
44843;DHT22;31884;52.538;13.820;2023-07-24T10:20:39;30.10;13.70
44843;DHT22;31884;52.538;13.820;2023-07-24T10:23:07;30.10;13.50
44843;DHT22;31884;52.538;13.820;2023-07-24T10:25:34;30.10;13.70
44843;DHT22;31884;52.538;13.820;2023-07-24T10:28:04;30.10;13.70
44843;DHT22;31884;52.538;13.820;2023-07-24T10:30:33;30.10;13.90
44843;DHT22;31884;52.538;13.820;2023-07-24T10:33:18;30.10;14.00
44843;DHT22;31884;52.538;13.820;2023-07-24T10:35:46;30.10;14.00
44843;DHT22;31884;52.538;13.820;2023-07-24T10:38:14;30.00;13.70
44843;DHT22;31884;52.538;13.820;2023-07-24T10:40:41;30.00;13.80
44843;DHT22;31884;52.538;13.820;2023-07-24T10:43:08;29.90;13.70
44843;DHT22;31884;52.538;13.820;2023-07-24T10:45:40;29.80;13.90
44843;DHT22;31884;52.538;13.820;2023-07-24T10:48:06;29.80;13.80
44843;DHT22;31884;52.538;13.820;2023-07-24T10:50:39;29.80;13.70
44843;DHT22;31884;52.538;13.820;2023-07-24T10:53:05;29.80;13.80
44843;DHT22;31884;52.538;13.820;2023-07-24T10:55:30;29.80;13.70
44843;DHT22;31884;52.538;13.820;2023-07-24T10:57:56;29.90;13.70
44843;DHT22;31884;52.538;13.820;2023-07-24T11:00:21;29.90;13.70
44843;DHT22;31884;52.538;13.820;2023-07-24T11:02:47;29.80;13.70
44843;DHT22;31884;52.538;13.820;2023-07-24T11:05:13;29.90;13.60
44843;DHT22;31884;52.538;13.820;2023-07-24T11:07:39;29.90;13.60
44843;DHT22;31884;52.538;13.820;2023-07-24T11:10:15;30.00;13.50
44843;DHT22;31884;52.538;13.820;2023-07-24T11:12:40;30.10;13.80
44843;DHT22;31884;52.538;13.820;2023-07-24T11:15:06;30.20;13.90
44843;DHT22;31884;52.538;13.820;2023-07-24T11:17:36;30.20;13.20
44843;DHT22;31884;52.538;13.820;2023-07-24T11:20:15;30.30;13.20
44843;DHT22;31884;52.538;13.820;2023-07-24T11:22:43;30.40;13.60
44843;DHT22;31884;52.538;13.820;2023-07-24T11:25:10;30.40;12.90
44843;DHT22;31884;52.538;13.820;2023-07-24T11:27:42;30.40;12.90
44843;DHT22;31884;52.538;13.820;2023-07-24T11:30:10;30.30;12.70
44843;DHT22;31884;52.538;13.820;2023-07-24T11:32:41;30.40;12.80
44843;DHT22;31884;52.538;13.820;2023-07-24T11:35:07;30.40;12.60
44843;DHT22;31884;52.538;13.820;2023-07-24T11:37:34;30.50;12.40
44843;DHT22;31884;52.538;13.820;2023-07-24T11:40:00;30.50;12.40
44843;DHT22;31884;52.538;13.820;2023-07-24T11:42:35;30.30;12.20
44843;DHT22;31884;52.538;13.820;2023-07-24T11:45:01;30.00;12.00
44843;DHT22;31884;52.538;13.820;2023-07-24T11:47:28;30.00;12.70
44843;DHT22;31884;52.538;13.820;2023-07-24T11:50:01;30.20;12.70
44843;DHT22;31884;52.538;13.820;2023-07-24T11:52:44;30.30;12.30
44843;DHT22;31884;52.538;13.820;2023-07-24T11:55:15;30.30;11.90
44843;DHT22;31884;52.538;13.820;2023-07-24T11:57:41;30.10;12.10
44843;DHT22;31884;52.538;13.820;2023-07-24T12:00:18;30.00;12.20
44843;DHT22;31884;52.538;13.820;2023-07-24T12:02:44;30.20;12.20
44843;DHT22;31884;52.538;13.820;2023-07-24T12:05:10;30.20;12.20
44843;DHT22;31884;52.538;13.820;2023-07-24T12:07:36;30.30;12.30
44843;DHT22;31884;52.538;13.820;2023-07-24T12:10:03;30.50;11.80
44843;DHT22;31884;52.538;13.820;2023-07-24T12:12:46;30.60;11.80
44843;DHT22;31884;52.538;13.820;2023-07-24T12:15:12;30.50;11.30
44843;DHT22;31884;52.538;13.820;2023-07-24T12:17:38;30.20;11.60
44843;DHT22;31884;52.538;13.820;2023-07-24T12:20:04;30.00;11.80
44843;DHT22;31884;52.538;13.820;2023-07-24T12:22:32;30.00;11.70
44843;DHT22;31884;52.538;13.820;2023-07-24T12:24:57;30.00;11.70
44843;DHT22;31884;52.538;13.820;2023-07-24T12:27:23;29.90;11.50
44843;DHT22;31884;52.538;13.820;2023-07-24T12:29:50;29.80;10.90
44843;DHT22;31884;52.538;13.820;2023-07-24T12:32:16;29.80;11.10
44843;DHT22;31884;52.538;13.820;2023-07-24T12:34:41;29.70;11.30
44843;DHT22;31884;52.538;13.820;2023-07-24T12:37:07;29.80;11.40
44843;DHT22;31884;52.538;13.820;2023-07-24T12:39:32;29.80;11.30
44843;DHT22;31884;52.538;13.820;2023-07-24T12:41:58;29.90;10.80
44843;DHT22;31884;52.538;13.820;2023-07-24T12:44:23;30.00;10.90
44843;DHT22;31884;52.538;13.820;2023-07-24T12:46:49;29.90;11.10
44843;DHT22;31884;52.538;13.820;2023-07-24T12:49:14;29.80;11.20
44843;DHT22;31884;52.538;13.820;2023-07-24T12:51:39;29.60;11.10
44843;DHT22;31884;52.538;13.820;2023-07-24T12:54:05;29.30;11.00
44843;DHT22;31884;52.538;13.820;2023-07-24T12:56:31;28.90;11.50
44843;DHT22;31884;52.538;13.820;2023-07-24T12:58:56;28.70;11.80
44843;DHT22;31884;52.538;13.820;2023-07-24T13:01:21;28.50;12.70
44843;DHT22;31884;52.538;13.820;2023-07-24T13:03:47;28.40;12.60
44843;DHT22;31884;52.538;13.820;2023-07-24T13:06:12;28.00;14.60
44843;DHT22;31884;52.538;13.820;2023-07-24T13:08:38;27.60;16.50
44843;DHT22;31884;52.538;13.820;2023-07-24T13:11:03;27.30;17.80
44843;DHT22;31884;52.538;13.820;2023-07-24T13:13:29;27.00;19.10
44843;DHT22;31884;52.538;13.820;2023-07-24T13:15:56;26.80;20.80
44843;DHT22;31884;52.538;13.820;2023-07-24T13:18:21;26.80;21.40
44843;DHT22;31884;52.538;13.820;2023-07-24T13:20:47;26.80;21.50
44843;DHT22;31884;52.538;13.820;2023-07-24T13:23:12;27.00;21.90
44843;DHT22;31884;52.538;13.820;2023-07-24T13:25:37;27.00;22.00
44843;DHT22;31884;52.538;13.820;2023-07-24T13:28:03;26.90;22.40
44843;DHT22;31884;52.538;13.820;2023-07-24T13:30:29;26.90;22.50
44843;DHT22;31884;52.538;13.820;2023-07-24T13:32:54;26.80;23.40
44843;DHT22;31884;52.538;13.820;2023-07-24T13:35:20;26.80;24.20
44843;DHT22;31884;52.538;13.820;2023-07-24T13:37:45;26.80;24.10
44843;DHT22;31884;52.538;13.820;2023-07-24T13:40:11;26.60;24.00
44843;DHT22;31884;52.538;13.820;2023-07-24T13:42:36;26.40;25.00
44843;DHT22;31884;52.538;13.820;2023-07-24T13:45:02;26.40;25.10
44843;DHT22;31884;52.538;13.820;2023-07-24T13:47:28;26.40;25.80
44843;DHT22;31884;52.538;13.820;2023-07-24T13:49:53;26.40;26.30
44843;DHT22;31884;52.538;13.820;2023-07-24T13:52:19;26.40;27.00
44843;DHT22;31884;52.538;13.820;2023-07-24T13:54:44;26.40;27.30
44843;DHT22;31884;52.538;13.820;2023-07-24T13:57:09;26.40;27.50
44843;DHT22;31884;52.538;13.820;2023-07-24T13:59:36;26.40;27.90
44843;DHT22;31884;52.538;13.820;2023-07-24T14:02:03;26.50;28.20
44843;DHT22;31884;52.538;13.820;2023-07-24T14:04:29;26.60;28.10
44843;DHT22;31884;52.538;13.820;2023-07-24T14:06:54;26.60;28.40
44843;DHT22;31884;52.538;13.820;2023-07-24T14:09:20;26.50;28.60
44843;DHT22;31884;52.538;13.820;2023-07-24T14:11:45;26.60;29.70
44843;DHT22;31884;52.538;13.820;2023-07-24T14:14:11;26.60;29.60
44843;DHT22;31884;52.538;13.820;2023-07-24T14:16:36;26.70;29.40
44843;DHT22;31884;52.538;13.820;2023-07-24T14:19:02;26.80;30.40
44843;DHT22;31884;52.538;13.820;2023-07-24T14:21:27;26.80;29.80
44843;DHT22;31884;52.538;13.820;2023-07-24T14:23:53;26.80;29.70
44843;DHT22;31884;52.538;13.820;2023-07-24T14:26:18;26.80;29.70
44843;DHT22;31884;52.538;13.820;2023-07-24T14:28:44;26.80;30.00
44843;DHT22;31884;52.538;13.820;2023-07-24T14:31:09;26.70;30.10
44843;DHT22;31884;52.538;13.820;2023-07-24T14:33:35;26.60;30.80
44843;DHT22;31884;52.538;13.820;2023-07-24T14:36:01;26.40;32.30
44843;DHT22;31884;52.538;13.820;2023-07-24T14:38:27;26.30;32.50
44843;DHT22;31884;52.538;13.820;2023-07-24T14:40:52;26.30;32.70
44843;DHT22;31884;52.538;13.820;2023-07-24T14:43:18;26.30;32.80
44843;DHT22;31884;52.538;13.820;2023-07-24T14:45:43;26.30;33.20
44843;DHT22;31884;52.538;13.820;2023-07-24T14:48:09;26.20;35.20
44843;DHT22;31884;52.538;13.820;2023-07-24T14:50:35;26.10;36.10
44843;DHT22;31884;52.538;13.820;2023-07-24T14:53:00;26.00;37.00
44843;DHT22;31884;52.538;13.820;2023-07-24T14:55:26;25.80;38.20
44843;DHT22;31884;52.538;13.820;2023-07-24T14:57:51;25.70;39.20
44843;DHT22;31884;52.538;13.820;2023-07-24T15:00:17;25.70;39.70
44843;DHT22;31884;52.538;13.820;2023-07-24T15:02:43;25.60;40.80
44843;DHT22;31884;52.538;13.820;2023-07-24T15:05:08;25.60;41.30
44843;DHT22;31884;52.538;13.820;2023-07-24T15:07:34;25.50;41.80
44843;DHT22;31884;52.538;13.820;2023-07-24T15:09:59;25.50;42.70
44843;DHT22;31884;52.538;13.820;2023-07-24T15:12:25;25.50;43.40
44843;DHT22;31884;52.538;13.820;2023-07-24T15:14:50;25.50;44.00